»·PEaware :: N184GS KPDX-KSEA

N184GS :: KPDX-KSEA

FLIGHT INFORMATION

Flight Status: Arrived
Operator: Privately registered:
United States
More flights under this callsign
Pilot: Todd T. (13067)
Aircraft: BEECH AIRCRAFT BARON
(BE58)
More flights by this aircraft type
Origin: KPDX Portland Intl
United States
Destination: KSEA Seattle-Tacoma Intl
United States
More flights between these airports :: More routes between these airports
Route: +PLTD1 BTG V495 SEA
File this flight plan on PilotEdge
Remarks:
Altitude:
(Current/Filed)
11,000ft
Speed:
(Current/Filed)
0kts
Departed: 02-Dec-17 07:10 PM
Arrived: 02-Dec-17 08:05 PM
Distance/Time
Traveled:
112nm/0:55
Distance/Time
To Go:
Arrived

Flight Plot

Page will automatically refresh every two minutes.

Flight plan parsing failed; only flown route is shown


Map Options




Map Legend


Flown Route
Filed Route
Departure Airport
Arrival Airport
Navaid (VOR, NDB)
Fix

Horizontal Profiles

Position Reports

Time Latitude Longitude Heading Altitude Ground
Speed
02-Dec-17 19:04 45.586661 -122.583902 117 19ft 0kts
02-Dec-17 19:05 45.586661 -122.583902 117 19ft 0kts
02-Dec-17 19:06 45.586661 -122.583902 117 19ft 0kts
02-Dec-17 19:07 45.586538 -122.583173 40 19ft 11kts
02-Dec-17 19:08 45.587063 -122.583247 320 19ft 0kts
02-Dec-17 19:09 45.587063 -122.583247 320 19ft 0kts
02-Dec-17 19:10 45.588582 -122.582896 308 19ft 18kts
02-Dec-17 19:11 45.591964 -122.591518 298 19ft 28kts
02-Dec-17 19:12 45.593902 -122.596045 346 19ft 0kts
02-Dec-17 19:13 45.593902 -122.596045 346 19ft 0kts
02-Dec-17 19:14 45.594394 -122.595679 50 19ft 15kts
02-Dec-17 19:15 45.585000 -122.569986 117 383ft 132kts
02-Dec-17 19:16 45.570153 -122.526956 113 1803ft 124kts
02-Dec-17 19:17 45.571100 -122.489854 357 3756ft 113kts
02-Dec-17 19:18 45.606026 -122.503769 337 4727ft 140kts
02-Dec-17 19:19 45.642463 -122.520572 331 5998ft 136kts
02-Dec-17 19:20 45.677516 -122.539962 331 7200ft 136kts
02-Dec-17 19:21 45.712271 -122.558460 335 8332ft 136kts
02-Dec-17 19:22 45.749006 -122.576384 334 9062ft 138kts
02-Dec-17 19:23 45.788938 -122.573538 358 10155ft 147kts
02-Dec-17 19:24 45.830313 -122.567224 358 11015ft 159kts
02-Dec-17 19:25 45.874118 -122.570730 347 11023ft 164kts
02-Dec-17 19:26 45.915488 -122.572856 353 11019ft 185kts
02-Dec-17 19:27 45.968022 -122.570508 356 11033ft 193kts
02-Dec-17 19:28 46.017764 -122.566469 357 11032ft 195kts
02-Dec-17 19:29 46.071497 -122.561335 359 11029ft 194kts
02-Dec-17 19:30 46.121646 -122.556510 357 11028ft 193kts
02-Dec-17 19:31 46.170434 -122.552154 358 11028ft 193kts
02-Dec-17 19:32 46.219921 -122.547462 358 11028ft 193kts
02-Dec-17 19:33 46.272447 -122.542485 358 11031ft 200kts
02-Dec-17 19:34 46.327898 -122.537218 358 11029ft 203kts
02-Dec-17 19:35 46.384092 -122.531866 358 11029ft 204kts
02-Dec-17 19:36 46.438140 -122.526733 359 11031ft 203kts
02-Dec-17 19:37 46.488474 -122.496299 33 11030ft 208kts
02-Dec-17 19:38 46.538402 -122.455591 15 11030ft 209kts
02-Dec-17 19:39 46.589069 -122.437590 5 11030ft 209kts
02-Dec-17 19:40 46.640462 -122.427094 2 11007ft 209kts
02-Dec-17 19:41 46.693089 -122.418653 1 11003ft 208kts
02-Dec-17 19:42 46.750051 -122.412519 359 11003ft 208kts
02-Dec-17 19:43 46.803561 -122.407445 359 11003ft 206kts
02-Dec-17 19:44 46.852059 -122.402232 359 11029ft 171kts
02-Dec-17 19:45 46.901607 -122.399686 352 11030ft 188kts
02-Dec-17 19:46 46.952938 -122.402488 352 11220ft 186kts
02-Dec-17 19:47 47.004177 -122.404911 353 11054ft 188kts
02-Dec-17 19:48 47.053845 -122.407004 351 10938ft 186kts
02-Dec-17 19:49 47.102966 -122.407367 356 10666ft 185kts
02-Dec-17 19:50 47.142753 -122.408543 355 9944ft 185kts
02-Dec-17 19:51 47.188579 -122.411678 352 9205ft 179kts
02-Dec-17 19:52 47.233675 -122.414326 353 8464ft 178kts
02-Dec-17 19:53 47.277335 -122.416882 352 7793ft 174kts
02-Dec-17 19:54 47.323277 -122.419618 352 7132ft 171kts
02-Dec-17 19:55 47.364156 -122.420655 358 6935ft 151kts
02-Dec-17 19:56 47.404440 -122.419861 355 7065ft 158kts
02-Dec-17 19:57 47.448336 -122.419339 359 7208ft 167kts
02-Dec-17 19:58 47.489935 -122.421787 355 6885ft 167kts
02-Dec-17 19:59 47.534186 -122.425140 353 5674ft 167kts
02-Dec-17 20:00 47.578741 -122.430313 352 5131ft 163kts
02-Dec-17 20:01 47.620990 -122.429904 11 4518ft 171kts
02-Dec-17 20:02 47.637736 -122.377905 97 3972ft 169kts
02-Dec-17 20:03 47.629657 -122.317951 140 3127ft 148kts
02-Dec-17 20:04 47.596000 -122.316091 186 2869ft 120kts
02-Dec-17 20:05 47.563029 -122.318126 181 2468ft 123kts
02-Dec-17 20:06 47.532174 -122.318001 179 1750ft 114kts
02-Dec-17 20:07 47.502077 -122.317743 179 1133ft 105kts
02-Dec-17 20:08 47.475059 -122.317845 181 647ft 89kts
02-Dec-17 20:09 47.453387 -122.318012 177 352ft 57kts
02-Dec-17 20:10 47.441936 -122.316562 150 352ft 22kts

Navigation Log

Ident Type
Flight plan parsing failed, navigation log unavailable